Pope Valley, CA (94567)

3:47 AM PST on January 31, 2015 (GMT -0800)
North End Pope Valley | Change Station
CLOSE
Current Station
Personal Weather Station
Location: Pope Valley, CA
Elevation: 784 ft
Nearby Weather Stations

Elev 784 ft 38.67 °N, 122.46 °W | Updated 1 minute ago

Clear
Clear
61.5 °F
Feels Like 61.5 °F
N
2.9
Wind Variable Wind from NNW
Gusts 5.0 mph

Today
High -- | Low -- °F
--% Chance of Precip.
Yesterday
High -- | Low -- °F
Precip. -- in
7:16 AM 5:30 PM
Waxing Gibbous, 89% visible
Pressure 29.90 in
Visibility 10.0 miles
Clouds Clear
Dew Point 20 °F
Humidity 20%
Rainfall 0.00 in
Snow Depth Not available.
UV 0 out of 12
Pollen 7.30 out of 12
Air Quality Not available.
Flu Activity Not available.
METAR KSTS 311053Z 26004KT 10SM CLR 07/05 A2991 RMK AO2 SLP124 T00720050

More Conditions Fewer Conditions

Pressure 29.90 in
Visibility 10.0 miles
Clouds Clear
Dew Point 20 °F
Humidity 20%
Rainfall 0.00 in
Snow Depth Not available.
UV 0 out of 12
Pollen 7.30 out of 12
Air Quality Not available.
Flu Activity Not available.
METAR KSTS 311053Z 26004KT 10SM CLR 07/05 A2991 RMK AO2 SLP124 T00720050

More Conditions Fewer Conditions

10-Day Weather Forecast

Almanac

Astronomy

Jan. 31, 2015 Rise Set
Actual Time
Civil Twilight
Nautical Twilight
Astronomical Twilight
Moon
Length of Visible Light
Length of Day
Tomorrow will be .
, % of the Moon is Illuminated

Today's Extremes

State Highs State Lows

Community

WunderPhotos

Upload Photos

1,792,032 photos uploaded!

WunderBlogs® & News

Nearby

Air Quality

  Air Quality AQ Index Pollutant
Not available.

Snow Depth

Station Depth Elevation

Earthquake Activity

City Distance Mag. Time & Date
Minimum magnitude displayed is 2.5.

Coastal Water Temperatures

Place Temperature

Nearby Weather Stations